Ana Sayfa
METAR-TAF:

METAR-TAF

Havaalanları :

Sussex Airport

Sussex, New Jersey, Amerika Birleşik Devletleri

Enlem: 41-12-01N, Boylam: 074-37-23W, yükseklik: 128 m

Güncel hava durumu gözlemi

Rapor saat 08:53 UTC de 59 dakika önce yapıldı.
Sakin rüzgar
Sıcaklık 3°C
Nem 70%
Basınç 1012 hPa
Görüş mesafesi: 16.1 km
Açık gökyüzü

METAR: KFWN 250853Z AUTO 00000KT 10SM CLR 03/M02 A2988 RMK AO2 SLP119 T00331017 55002

Saat: 04:52 (09:52 UTC)


TAF: eksik

4.000'den fazla havaalanı için hava durumu gözlemleri ve tahminleri (METAR ve TAF raporları).

Kullanılabilir istasyonlar harita üzerinde sarı ve kırmızı noktalarla gösterilir.

İstasyonun adını görmek için fareyi noktanın üzerinde gezdirin.

Sonrasında hava gözlem ve tahminlerini görmek için tıklayın.

Haritayı değiştirmek için: yaklaştırmak için siyah artı işaretli yeşil düğmeye ve uzaklaştırmak için de eksi işaretli düğmeye hızla tıklayın; bitişik haritalar için yeşil okları kullanın.


METAR-TAF: